createdAt,value
2016-12-31T00:00:12.307Z,50.90
2016-12-31T00:01:12.408Z,50.70
2016-12-31T00:02:11.557Z,50.70
2016-12-31T00:03:08.721Z,is
2016-12-31T00:04:18.547Z,50.80
2016-12-31T00:05:12.386Z,50.90
2016-12-31T00:06:12.954Z,50.80
2016-12-31T00:07:12.842Z,50.80
2016-12-31T00:08:11.669Z,50.80
2016-12-31T00:09:11.954Z,50.80
2016-12-31T00:10:11.971Z,50.70
2016-12-31T00:11:13.588Z,50.70
2016-12-31T00:12:12.205Z,50.80
2016-12-31T00:13:12.457Z,50.80
2016-12-31T00:14:11.987Z,50.90
2016-12-31T00:15:12.576Z,50.90
2016-12-31T00:16:12.100Z,50.90
2016-12-31T00:17:13.245Z,50.90
2016-12-31T00:18:12.248Z,50.80
2016-12-31T00:19:14.495Z,50.80
2016-12-31T00:20:11.533Z,50.70
2016-12-31T00:21:11.627Z,50.80
2016-12-31T00:22:12.014Z,50.80
2016-12-31T00:23:10.890Z,is
2016-12-31T00:24:12.690Z,50.80
2016-12-31T00:25:11.771Z,50.80
2016-12-31T00:26:11.791Z,50.80
2016-12-31T00:27:11.921Z,50.80
2016-12-31T00:28:12.737Z,50.90
2016-12-31T00:29:14.256Z,50.80
2016-12-31T00:30:12.251Z,50.80
2016-12-31T00:31:12.806Z,50.80
2016-12-31T00:32:12.399Z,50.80
2016-12-31T00:33:11.889Z,50.80
2016-12-31T00:34:13.593Z,50.90
2016-12-31T00:35:11.628Z,50.80
2016-12-31T00:36:11.598Z,50.80
2016-12-31T00:37:12.469Z,50.90
2016-12-31T00:38:12.153Z,50.80
2016-12-31T00:39:12.110Z,50.90
2016-12-31T00:40:12.550Z,50.80
2016-12-31T00:41:11.977Z,50.90
2016-12-31T00:42:12.667Z,51.10
2016-12-31T00:43:10.296Z,is
2016-12-31T00:44:12.239Z,50.90
2016-12-31T00:45:13.135Z,50.80
2016-12-31T00:46:12.361Z,50.80
2016-12-31T00:47:11.618Z,50.80
2016-12-31T00:48:11.732Z,50.80
2016-12-31T00:49:10.734Z,is
2016-12-31T00:50:12.036Z,50.80
2016-12-31T00:51:12.627Z,50.80
2016-12-31T00:52:13.115Z,50.80
2016-12-31T00:53:12.148Z,50.70
2016-12-31T00:54:13.665Z,50.80
2016-12-31T00:55:12.399Z,50.80
2016-12-31T00:56:12.209Z,51.40
2016-12-31T00:57:13.081Z,50.90
2016-12-31T00:58:11.920Z,50.80
2016-12-31T00:59:12.335Z,50.70
2016-12-31T01:00:13.637Z,50.80
2016-12-31T01:01:12.219Z,50.80
2016-12-31T01:02:15.307Z,50.80
2016-12-31T01:03:12.899Z,50.80
2016-12-31T01:04:13.342Z,50.80
2016-12-31T01:05:13.344Z,50.80
2016-12-31T01:06:12.820Z,50.80
2016-12-31T01:07:12.360Z,50.80
2016-12-31T01:08:12.913Z,50.90
2016-12-31T01:09:13.953Z,50.70
2016-12-31T01:10:12.651Z,50.80
2016-12-31T01:11:11.573Z,50.80
2016-12-31T01:12:12.107Z,50.80
2016-12-31T01:13:12.144Z,50.80
2016-12-31T01:14:12.820Z,50.90
2016-12-31T01:15:16.239Z,50.80
2016-12-31T01:16:13.720Z,50.80
2016-12-31T01:17:13.601Z,50.90
2016-12-31T01:18:14.312Z,50.70
2016-12-31T01:19:12.215Z,50.80
2016-12-31T01:20:12.776Z,50.90
2016-12-31T01:21:12.730Z,50.80
2016-12-31T01:22:12.238Z,50.80
2016-12-31T01:23:12.760Z,50.70
2016-12-31T01:24:12.288Z,50.80
2016-12-31T01:25:13.889Z,50.90
2016-12-31T01:26:12.050Z,50.70
2016-12-31T01:27:12.800Z,50.80
2016-12-31T01:28:12.462Z,50.90
2016-12-31T01:29:12.749Z,50.80
2016-12-31T01:30:11.838Z,50.80
2016-12-31T01:31:13.800Z,50.90
2016-12-31T01:32:11.801Z,51.00
2016-12-31T01:33:12.468Z,50.80
2016-12-31T01:34:11.866Z,50.80
2016-12-31T01:35:13.146Z,50.80
2016-12-31T01:36:12.999Z,50.80
2016-12-31T01:37:12.232Z,50.80
2016-12-31T01:38:12.315Z,50.90
2016-12-31T01:39:12.952Z,50.90
2016-12-31T01:40:12.443Z,50.90
2016-12-31T01:41:13.133Z,50.90
2016-12-31T01:42:12.845Z,50.80
2016-12-31T01:43:12.929Z,50.80
2016-12-31T01:44:10.538Z,is
2016-12-31T01:45:12.492Z,50.70
2016-12-31T01:46:12.296Z,50.80
2016-12-31T01:47:10.192Z,is
2016-12-31T01:48:13.423Z,50.90
2016-12-31T01:49:12.734Z,50.80
2016-12-31T01:50:12.486Z,50.80
2016-12-31T01:51:18.260Z,50.80
2016-12-31T01:52:13.240Z,50.90
2016-12-31T01:53:12.388Z,50.80
2016-12-31T01:54:13.951Z,50.80
2016-12-31T01:55:10.581Z,is
2016-12-31T01:56:13.136Z,50.80
2016-12-31T01:57:13.293Z,50.80
2016-12-31T01:58:13.541Z,50.70
2016-12-31T01:59:19.075Z,50.70
2016-12-31T02:00:12.761Z,50.80
2016-12-31T02:01:11.770Z,50.80
2016-12-31T02:02:12.671Z,51.20
2016-12-31T02:03:12.242Z,50.80
2016-12-31T02:04:12.309Z,50.80
2016-12-31T02:05:12.862Z,50.80
2016-12-31T02:06:12.292Z,50.80
2016-12-31T02:07:12.654Z,50.80
2016-12-31T02:08:12.262Z,50.80
2016-12-31T02:09:12.303Z,50.80
2016-12-31T02:10:12.593Z,50.80
2016-12-31T02:11:12.192Z,50.80
2016-12-31T02:12:11.279Z,is
2016-12-31T02:13:12.061Z,51.00
2016-12-31T02:14:12.666Z,50.80
2016-12-31T02:15:12.981Z,50.80
2016-12-31T02:16:12.633Z,50.90
2016-12-31T02:17:11.882Z,50.80
2016-12-31T02:18:09.014Z,is
2016-12-31T02:19:13.094Z,50.80
2016-12-31T02:20:10.771Z,is
2016-12-31T02:21:12.584Z,50.80
2016-12-31T02:22:13.123Z,50.80
2016-12-31T02:23:12.859Z,50.80
2016-12-31T02:24:12.999Z,50.80
2016-12-31T02:25:13.044Z,50.70
2016-12-31T02:26:12.124Z,50.70
2016-12-31T02:27:12.347Z,50.70
2016-12-31T02:28:12.389Z,50.80
2016-12-31T02:29:10.962Z,is
2016-12-31T02:30:12.872Z,50.70
2016-12-31T02:31:12.766Z,51.00
2016-12-31T02:32:12.428Z,50.70
2016-12-31T02:33:12.574Z,50.90
2016-12-31T02:34:12.460Z,50.90
2016-12-31T02:35:12.498Z,50.80
2016-12-31T02:36:12.158Z,50.90
2016-12-31T02:37:12.150Z,50.90
2016-12-31T02:38:12.271Z,50.80
2016-12-31T02:39:12.164Z,50.80
2016-12-31T02:40:12.184Z,50.80
2016-12-31T02:41:13.095Z,50.80
2016-12-31T02:42:12.803Z,50.80
2016-12-31T02:43:13.792Z,50.90
2016-12-31T02:44:12.437Z,50.90
2016-12-31T02:45:11.554Z,50.80
2016-12-31T02:46:12.176Z,50.80
2016-12-31T02:47:12.894Z,50.80
2016-12-31T02:48:11.895Z,50.80
2016-12-31T02:49:12.621Z,50.90
2016-12-31T02:50:12.773Z,50.80
2016-12-31T02:51:11.772Z,50.80
2016-12-31T02:52:11.868Z,50.70
2016-12-31T02:53:11.940Z,50.80
2016-12-31T02:54:12.074Z,50.80
2016-12-31T02:55:13.588Z,50.90
2016-12-31T02:56:11.672Z,50.80
2016-12-31T02:57:11.615Z,50.80
2016-12-31T02:58:11.764Z,50.90
2016-12-31T02:59:11.829Z,50.80
2016-12-31T03:00:13.106Z,50.80
2016-12-31T03:01:13.524Z,50.90
2016-12-31T03:02:11.735Z,50.80
2016-12-31T03:03:11.876Z,50.90
2016-12-31T03:04:12.908Z,50.90
2016-12-31T03:05:11.919Z,50.80
2016-12-31T03:06:10.833Z,is
2016-12-31T03:07:14.123Z,50.80
2016-12-31T03:08:12.636Z,50.90
2016-12-31T03:09:12.358Z,50.90
2016-12-31T03:10:13.273Z,50.90
2016-12-31T03:11:12.813Z,50.80
2016-12-31T03:12:10.492Z,is
2016-12-31T03:13:11.694Z,50.80
2016-12-31T03:14:12.479Z,50.80
2016-12-31T03:15:13.097Z,50.90
2016-12-31T03:16:13.572Z,50.90
2016-12-31T03:17:11.735Z,50.80
2016-12-31T03:18:11.885Z,50.80
2016-12-31T03:19:12.012Z,50.90
2016-12-31T03:20:12.749Z,50.80
2016-12-31T03:21:10.292Z,is
2016-12-31T03:22:11.582Z,50.80
2016-12-31T03:23:11.668Z,50.80
2016-12-31T03:24:11.729Z,50.80
2016-12-31T03:25:12.889Z,50.90
2016-12-31T03:26:13.153Z,50.80
2016-12-31T03:27:12.845Z,50.80
2016-12-31T03:28:11.908Z,50.70
2016-12-31T03:29:12.542Z,50.80
2016-12-31T03:30:12.354Z,50.80
2016-12-31T03:31:13.162Z,50.80
2016-12-31T03:32:12.143Z,50.80
2016-12-31T03:33:14.032Z,50.80
2016-12-31T03:34:12.380Z,50.80
2016-12-31T03:35:11.882Z,50.80
2016-12-31T03:36:11.933Z,50.70
2016-12-31T03:37:12.813Z,50.80
2016-12-31T03:38:12.352Z,50.90
2016-12-31T03:39:12.844Z,50.80
2016-12-31T03:40:10.537Z,is
2016-12-31T03:41:12.402Z,50.90
2016-12-31T03:42:09.231Z,is
2016-12-31T03:43:12.381Z,50.80
2016-12-31T03:44:12.153Z,50.80
2016-12-31T03:45:12.109Z,50.70
2016-12-31T03:46:10.960Z,is
2016-12-31T03:47:12.198Z,50.70
2016-12-31T03:48:12.258Z,50.80
2016-12-31T03:49:12.302Z,50.70
2016-12-31T03:50:12.810Z,50.80
2016-12-31T03:51:11.832Z,50.80
2016-12-31T03:52:12.628Z,50.80
2016-12-31T03:53:12.378Z,50.90
2016-12-31T03:54:11.421Z,50.80
2016-12-31T03:55:12.010Z,50.80
2016-12-31T03:56:12.359Z,50.90
2016-12-31T03:57:11.979Z,50.70
2016-12-31T03:58:12.054Z,50.70
2016-12-31T03:59:12.750Z,50.90
2016-12-31T04:00:12.593Z,50.80
2016-12-31T04:01:11.687Z,50.80
2016-12-31T04:02:12.388Z,50.80
2016-12-31T04:03:13.180Z,50.90
2016-12-31T04:04:12.186Z,50.80
2016-12-31T04:05:12.893Z,50.90
2016-12-31T04:06:12.932Z,50.80
2016-12-31T04:07:12.538Z,50.90
2016-12-31T04:08:08.925Z,is
2016-12-31T04:09:12.729Z,50.80
2016-12-31T04:10:12.370Z,50.80
2016-12-31T04:11:12.031Z,50.90
2016-12-31T04:12:12.978Z,50.80
2016-12-31T04:13:12.536Z,50.70
2016-12-31T04:14:11.445Z,50.80
2016-12-31T04:15:10.263Z,is
2016-12-31T04:16:12.342Z,50.90
2016-12-31T04:17:13.089Z,50.80
2016-12-31T04:18:12.692Z,50.80
2016-12-31T04:19:13.477Z,50.90
2016-12-31T04:20:12.055Z,50.80
2016-12-31T04:21:10.643Z,is
2016-12-31T04:22:12.655Z,50.90
2016-12-31T04:23:12.426Z,50.90
2016-12-31T04:24:12.633Z,50.80
2016-12-31T04:25:11.607Z,50.80
2016-12-31T04:26:12.445Z,50.80
2016-12-31T04:27:11.432Z,50.80
2016-12-31T04:28:12.846Z,50.80
2016-12-31T04:29:11.833Z,50.80
2016-12-31T04:30:13.479Z,50.80
2016-12-31T04:31:09.553Z,is
2016-12-31T04:32:12.616Z,50.70
2016-12-31T04:33:11.505Z,50.80
2016-12-31T04:34:12.247Z,50.80
2016-12-31T04:35:12.951Z,50.80
2016-12-31T04:36:12.779Z,50.80
2016-12-31T04:37:08.930Z,is
2016-12-31T04:38:10.522Z,is
2016-12-31T04:39:11.843Z,50.80
2016-12-31T04:40:12.826Z,50.80
2016-12-31T04:41:12.292Z,50.80
2016-12-31T04:42:12.947Z,50.90
2016-12-31T04:43:12.205Z,50.80
2016-12-31T04:44:12.763Z,50.80
2016-12-31T04:45:11.749Z,50.90
2016-12-31T04:46:11.742Z,50.80
2016-12-31T04:47:12.308Z,50.80
2016-12-31T04:48:12.873Z,50.80
2016-12-31T04:49:12.225Z,50.80
2016-12-31T04:50:12.323Z,50.80
2016-12-31T04:51:14.098Z,50.80
2016-12-31T04:52:14.830Z,50.80
2016-12-31T04:53:11.882Z,50.80
2016-12-31T04:54:11.989Z,50.80
2016-12-31T04:55:12.150Z,50.70
2016-12-31T04:56:12.174Z,50.80
2016-12-31T04:57:11.442Z,50.90
2016-12-31T04:58:12.232Z,50.90
2016-12-31T04:59:13.007Z,50.80
2016-12-31T05:00:13.668Z,50.80
2016-12-31T05:01:13.359Z,50.90
2016-12-31T05:02:12.771Z,50.70
2016-12-31T05:03:11.879Z,50.80
2016-12-31T05:04:11.963Z,50.80
2016-12-31T05:05:14.657Z,50.70
2016-12-31T05:06:12.585Z,50.70
2016-12-31T05:07:12.103Z,50.80
2016-12-31T05:08:12.109Z,50.80
2016-12-31T05:09:11.983Z,50.80
2016-12-31T05:10:10.430Z,is
2016-12-31T05:11:12.620Z,50.80
2016-12-31T05:12:12.430Z,50.80
2016-12-31T05:13:12.321Z,50.90
2016-12-31T05:14:12.484Z,50.70
2016-12-31T05:15:11.530Z,50.80
2016-12-31T05:16:10.388Z,is
2016-12-31T05:17:12.379Z,50.80
2016-12-31T05:18:13.098Z,50.80
2016-12-31T05:19:11.769Z,50.70
2016-12-31T05:20:11.800Z,50.70
2016-12-31T05:21:11.856Z,50.70
2016-12-31T05:22:12.238Z,50.80
2016-12-31T05:23:12.342Z,50.80
2016-12-31T05:24:12.457Z,50.80
2016-12-31T05:25:17.498Z,50.90
2016-12-31T05:26:12.825Z,50.80
2016-12-31T05:27:12.391Z,50.70
2016-12-31T05:28:08.941Z,is
2016-12-31T05:29:10.742Z,is
2016-12-31T05:30:13.083Z,50.80
2016-12-31T05:31:12.755Z,50.80
2016-12-31T05:32:12.729Z,50.70
2016-12-31T05:33:12.098Z,50.70
2016-12-31T05:34:12.881Z,50.70
2016-12-31T05:35:12.721Z,50.90
2016-12-31T05:36:09.332Z,is
2016-12-31T05:37:12.791Z,50.90
2016-12-31T05:38:12.428Z,50.70
2016-12-31T05:39:11.855Z,50.80
2016-12-31T05:40:12.461Z,50.70
2016-12-31T05:41:11.530Z,50.70
2016-12-31T05:42:12.206Z,50.90
2016-12-31T05:43:12.119Z,50.70
2016-12-31T05:44:12.073Z,50.80
2016-12-31T05:45:12.136Z,50.70
2016-12-31T05:46:13.747Z,50.80
2016-12-31T05:47:11.717Z,50.80
2016-12-31T05:48:12.905Z,50.70
2016-12-31T05:49:12.300Z,50.80
2016-12-31T05:50:12.857Z,50.70
2016-12-31T05:51:09.807Z,is
2016-12-31T05:52:12.717Z,50.90
2016-12-31T05:53:11.614Z,50.70
2016-12-31T05:54:11.506Z,50.80
2016-12-31T05:55:11.937Z,50.70
2016-12-31T05:56:12.556Z,50.80
2016-12-31T05:57:13.380Z,49.90
2016-12-31T05:58:12.366Z,50.70
2016-12-31T05:59:13.093Z,50.80
2016-12-31T06:00:13.629Z,50.80
2016-12-31T06:01:11.805Z,50.70
2016-12-31T06:02:12.714Z,50.80
2016-12-31T06:03:11.735Z,50.80
2016-12-31T06:04:13.322Z,50.80
2016-12-31T06:05:12.210Z,50.10
2016-12-31T06:06:12.241Z,50.70
2016-12-31T06:07:12.397Z,50.70
2016-12-31T06:08:13.087Z,50.70
2016-12-31T06:09:13.646Z,50.70
2016-12-31T06:10:10.604Z,is
2016-12-31T06:11:13.773Z,50.80
2016-12-31T06:12:12.402Z,50.80
2016-12-31T06:13:11.883Z,50.70
2016-12-31T06:14:11.768Z,50.70
2016-12-31T06:15:11.679Z,50.70
2016-12-31T06:16:12.178Z,50.70
2016-12-31T06:17:12.381Z,50.70
2016-12-31T06:18:12.867Z,50.70
2016-12-31T06:19:12.047Z,51.00
2016-12-31T06:20:13.514Z,50.90
2016-12-31T06:21:10.376Z,is
2016-12-31T06:22:12.268Z,50.80
2016-12-31T06:23:12.209Z,50.80
2016-12-31T06:24:12.260Z,50.70
2016-12-31T06:25:12.955Z,50.80
2016-12-31T06:26:10.547Z,is
2016-12-31T06:27:11.843Z,50.70
2016-12-31T06:28:12.540Z,50.80
2016-12-31T06:29:11.606Z,50.70
2016-12-31T06:30:12.391Z,50.80
2016-12-31T06:31:11.439Z,50.70
2016-12-31T06:32:12.158Z,50.80
2016-12-31T06:33:12.963Z,50.70
2016-12-31T06:34:12.092Z,50.70
2016-12-31T06:35:12.081Z,50.70
2016-12-31T06:36:12.178Z,50.70
2016-12-31T06:37:12.736Z,50.80
2016-12-31T06:38:13.277Z,50.80
2016-12-31T06:39:10.240Z,is
2016-12-31T06:40:10.392Z,is
2016-12-31T06:41:10.251Z,is
2016-12-31T06:42:12.230Z,50.80
2016-12-31T06:43:12.311Z,50.70
2016-12-31T06:44:13.969Z,50.80
2016-12-31T06:45:12.619Z,50.90
2016-12-31T06:46:11.481Z,50.70
2016-12-31T06:47:12.190Z,50.80
2016-12-31T06:48:12.061Z,50.70
2016-12-31T06:49:12.416Z,50.70
2016-12-31T06:50:11.723Z,50.70
2016-12-31T06:51:12.120Z,50.70
2016-12-31T06:52:12.957Z,50.70
2016-12-31T06:53:12.450Z,50.80
2016-12-31T06:54:12.321Z,50.80
2016-12-31T06:55:12.866Z,50.90
2016-12-31T06:56:12.398Z,50.70
2016-12-31T06:57:11.942Z,50.80
2016-12-31T06:58:10.392Z,is
2016-12-31T06:59:11.680Z,50.70
2016-12-31T07:00:12.243Z,50.80
2016-12-31T07:01:12.253Z,50.70
2016-12-31T07:02:13.886Z,50.80
2016-12-31T07:03:12.699Z,50.80
2016-12-31T07:04:10.605Z,is
2016-12-31T07:05:12.307Z,50.80
2016-12-31T07:06:15.423Z,50.70
2016-12-31T07:07:12.236Z,50.80
2016-12-31T07:08:12.490Z,50.70
2016-12-31T07:09:12.085Z,50.80
2016-12-31T07:10:12.969Z,50.70
2016-12-31T07:11:11.842Z,50.70
2016-12-31T07:12:12.421Z,50.70
2016-12-31T07:13:12.161Z,50.80
2016-12-31T07:14:12.644Z,50.70
2016-12-31T07:15:12.053Z,50.80
2016-12-31T07:16:12.518Z,50.80
2016-12-31T07:17:12.889Z,50.80
2016-12-31T07:18:11.932Z,50.70
2016-12-31T07:19:13.183Z,50.70
2016-12-31T07:20:12.071Z,50.70
2016-12-31T07:21:13.156Z,50.70
2016-12-31T07:22:11.879Z,50.70
2016-12-31T07:23:12.410Z,50.70
2016-12-31T07:24:12.529Z,50.80
2016-12-31T07:25:12.200Z,50.70
2016-12-31T07:26:12.755Z,50.80
2016-12-31T07:27:13.295Z,50.70
2016-12-31T07:28:15.942Z,50.70
2016-12-31T07:29:13.654Z,50.80
2016-12-31T07:30:12.111Z,50.70
2016-12-31T07:31:12.284Z,50.70
2016-12-31T07:32:12.254Z,50.70
2016-12-31T07:33:13.963Z,50.70
2016-12-31T07:34:12.008Z,50.70
2016-12-31T07:35:13.716Z,50.70
2016-12-31T07:36:11.774Z,50.70
2016-12-31T07:37:13.370Z,50.70
2016-12-31T07:38:11.557Z,50.70
2016-12-31T07:39:09.408Z,is
2016-12-31T07:40:12.710Z,50.80
2016-12-31T07:41:12.489Z,50.70
2016-12-31T07:42:12.189Z,50.70
2016-12-31T07:43:12.137Z,50.70
2016-12-31T07:44:12.661Z,50.70
2016-12-31T07:45:12.720Z,50.20
2016-12-31T07:46:12.223Z,50.70
2016-12-31T07:47:12.793Z,50.70
2016-12-31T07:48:13.408Z,50.70
2016-12-31T07:49:12.494Z,50.70
2016-12-31T07:50:10.130Z,is
2016-12-31T07:51:11.837Z,50.70
2016-12-31T07:52:11.735Z,50.70
2016-12-31T07:53:12.355Z,50.80
2016-12-31T07:54:12.208Z,50.70
2016-12-31T07:55:12.805Z,50.80
2016-12-31T07:56:11.825Z,50.70
2016-12-31T07:57:13.608Z,50.70
2016-12-31T07:58:12.184Z,50.80
2016-12-31T07:59:17.874Z,50.70
2016-12-31T08:00:11.975Z,50.70
2016-12-31T08:01:12.045Z,50.80
2016-12-31T08:02:13.642Z,37.70
2016-12-31T08:03:11.607Z,29.40
2016-12-31T08:04:11.484Z,28.40
2016-12-31T08:05:11.669Z,28.50
2016-12-31T08:06:12.447Z,29.10
2016-12-31T08:07:12.048Z,29.70
2016-12-31T08:08:12.484Z,31.70
2016-12-31T08:09:11.570Z,31.80
2016-12-31T08:10:11.592Z,32.50
2016-12-31T08:11:11.739Z,32.90
2016-12-31T08:12:11.860Z,33.20
2016-12-31T08:13:10.493Z,is
2016-12-31T08:14:12.437Z,33.50
2016-12-31T08:15:11.570Z,35.40
2016-12-31T08:16:11.528Z,35.50
2016-12-31T08:17:10.319Z,is
2016-12-31T08:18:12.434Z,35.60
2016-12-31T08:19:11.602Z,35.30
2016-12-31T08:20:11.590Z,35.70
2016-12-31T08:21:12.159Z,35.70
2016-12-31T08:22:12.801Z,35.20
2016-12-31T08:23:12.531Z,35.30
2016-12-31T08:24:11.972Z,35.60
2016-12-31T08:25:12.624Z,35.80
2016-12-31T08:26:13.122Z,36.20
2016-12-31T08:27:12.590Z,36.40
2016-12-31T08:28:13.502Z,36.60
2016-12-31T08:29:11.682Z,36.60
2016-12-31T08:30:11.819Z,36.50
2016-12-31T08:31:11.971Z,36.40
2016-12-31T08:32:13.152Z,36.20
2016-12-31T08:33:12.242Z,36.30
2016-12-31T08:34:13.412Z,36.10
2016-12-31T08:35:11.393Z,36.00
2016-12-31T08:36:11.520Z,36.20
2016-12-31T08:37:11.692Z,36.00
2016-12-31T08:38:11.796Z,36.00
2016-12-31T08:39:12.487Z,36.00
2016-12-31T08:40:11.674Z,35.90
2016-12-31T08:41:12.211Z,36.00
2016-12-31T08:42:12.361Z,36.00
2016-12-31T08:43:11.649Z,36.10
2016-12-31T08:44:11.709Z,36.20
2016-12-31T08:45:11.705Z,36.30
2016-12-31T08:46:12.566Z,36.50
2016-12-31T08:47:11.500Z,36.60
2016-12-31T08:48:12.663Z,36.60
2016-12-31T08:49:11.659Z,36.70
2016-12-31T08:50:11.774Z,36.80
2016-12-31T08:51:11.955Z,36.90
2016-12-31T08:52:12.873Z,37.10
2016-12-31T08:53:12.443Z,37.10
2016-12-31T08:54:13.044Z,37.20
2016-12-31T08:55:12.544Z,37.40
2016-12-31T08:56:09.986Z,is
2016-12-31T08:57:11.428Z,37.50
2016-12-31T08:58:11.432Z,37.50
2016-12-31T08:59:11.859Z,37.60
2016-12-31T09:00:12.231Z,37.80
2016-12-31T09:01:12.264Z,37.90
2016-12-31T09:02:12.470Z,38.00
2016-12-31T09:03:12.080Z,38.10
2016-12-31T09:04:12.552Z,38.20
2016-12-31T09:05:12.302Z,38.40
2016-12-31T09:06:12.933Z,38.30
2016-12-31T09:07:11.927Z,38.40
2016-12-31T09:08:11.899Z,38.50
2016-12-31T09:09:11.692Z,38.70
2016-12-31T09:10:12.113Z,38.70
2016-12-31T09:11:12.061Z,38.90
2016-12-31T09:12:12.902Z,39.00
2016-12-31T09:13:12.274Z,39.10
2016-12-31T09:14:12.808Z,39.30
2016-12-31T09:15:11.745Z,39.20
2016-12-31T09:16:11.882Z,39.50
2016-12-31T09:17:11.984Z,39.50
2016-12-31T09:18:11.959Z,39.70
2016-12-31T09:19:10.691Z,is
2016-12-31T09:20:10.654Z,is
2016-12-31T09:21:12.391Z,40.10
2016-12-31T09:22:12.190Z,40.10
2016-12-31T09:23:12.913Z,40.30
2016-12-31T09:24:13.692Z,40.20
2016-12-31T09:25:12.202Z,40.40
2016-12-31T09:26:12.288Z,40.50
2016-12-31T09:27:12.342Z,40.60
2016-12-31T09:28:12.338Z,40.60
2016-12-31T09:29:12.318Z,40.90
2016-12-31T09:30:11.867Z,40.90
2016-12-31T09:31:13.214Z,41.10
2016-12-31T09:32:12.128Z,41.10
2016-12-31T09:33:11.175Z,is
2016-12-31T09:34:11.845Z,41.30
2016-12-31T09:35:11.865Z,41.40
2016-12-31T09:36:11.790Z,41.70
2016-12-31T09:37:13.462Z,41.70
2016-12-31T09:38:12.477Z,42.20
2016-12-31T09:39:13.409Z,42.20
2016-12-31T09:40:11.998Z,42.20
2016-12-31T09:41:12.594Z,42.10
2016-12-31T09:42:09.969Z,is
2016-12-31T09:43:10.157Z,is
2016-12-31T09:44:11.627Z,42.10
2016-12-31T09:45:12.496Z,42.20
2016-12-31T09:46:09.548Z,is
2016-12-31T09:47:09.277Z,is
2016-12-31T09:48:12.939Z,42.20
2016-12-31T09:49:11.763Z,is
2016-12-31T09:50:11.937Z,42.10
2016-12-31T09:51:13.794Z,42.40
2016-12-31T09:52:12.396Z,42.50
2016-12-31T09:53:13.035Z,42.60
2016-12-31T09:54:12.638Z,42.60
2016-12-31T09:55:12.447Z,42.60
2016-12-31T09:56:11.539Z,42.60
2016-12-31T09:57:12.388Z,42.70
2016-12-31T09:58:11.553Z,42.70
2016-12-31T09:59:12.210Z,42.80
2016-12-31T10:00:12.211Z,42.90
2016-12-31T10:01:12.308Z,42.80
2016-12-31T10:02:12.084Z,42.90
2016-12-31T10:03:12.665Z,42.90
2016-12-31T10:04:11.612Z,42.90
2016-12-31T10:05:11.877Z,43.10
2016-12-31T10:06:12.145Z,43.30
2016-12-31T10:07:12.710Z,43.30
2016-12-31T10:08:11.605Z,43.50
2016-12-31T10:09:11.775Z,43.60
2016-12-31T10:10:11.701Z,43.70
2016-12-31T10:11:11.712Z,43.60
2016-12-31T10:12:11.655Z,43.60
2016-12-31T10:13:13.520Z,44.10
2016-12-31T10:14:12.223Z,43.90
2016-12-31T10:15:12.191Z,43.70
2016-12-31T10:16:10.704Z,is
2016-12-31T10:17:13.976Z,44.40
2016-12-31T10:18:13.631Z,44.40
2016-12-31T10:19:12.255Z,44.50
2016-12-31T10:20:12.168Z,44.40
2016-12-31T10:21:11.030Z,is
2016-12-31T10:22:12.945Z,44.70
2016-12-31T10:23:11.969Z,44.70
2016-12-31T10:24:12.546Z,44.70
2016-12-31T10:25:12.038Z,44.90
2016-12-31T10:26:13.727Z,45.10
2016-12-31T10:27:11.874Z,45.30
2016-12-31T10:28:13.003Z,45.20
2016-12-31T10:29:10.534Z,is
2016-12-31T10:30:12.521Z,45.50
2016-12-31T10:31:10.295Z,is
2016-12-31T10:32:11.771Z,45.80
2016-12-31T10:33:11.788Z,46.00
2016-12-31T10:34:11.754Z,46.10
2016-12-31T10:35:12.531Z,46.30
2016-12-31T10:36:12.560Z,46.20
2016-12-31T10:37:11.886Z,46.00
2016-12-31T10:38:12.272Z,46.10
2016-12-31T10:39:12.279Z,46.10
2016-12-31T10:40:12.866Z,46.10
2016-12-31T10:41:12.505Z,46.20
2016-12-31T10:42:10.457Z,is
2016-12-31T10:43:12.550Z,46.40
2016-12-31T10:44:08.809Z,is
2016-12-31T10:45:11.900Z,46.40
2016-12-31T10:46:12.331Z,46.50
2016-12-31T10:47:14.260Z,46.60
2016-12-31T10:48:12.698Z,46.90
2016-12-31T10:49:13.485Z,46.60
2016-12-31T10:50:13.270Z,46.80
2016-12-31T10:51:12.294Z,46.70
2016-12-31T10:52:11.566Z,46.90
2016-12-31T10:53:12.078Z,46.90
2016-12-31T10:54:12.114Z,46.80
2016-12-31T10:55:12.031Z,46.90
2016-12-31T10:56:10.618Z,is
2016-12-31T10:57:12.040Z,47.00
2016-12-31T10:58:12.491Z,46.90
2016-12-31T10:59:12.197Z,46.80
2016-12-31T11:00:12.345Z,46.60
2016-12-31T11:01:11.084Z,is
2016-12-31T11:02:12.227Z,46.80
2016-12-31T11:03:13.776Z,47.00
2016-12-31T11:04:11.873Z,46.90
2016-12-31T11:05:12.297Z,46.90
2016-12-31T11:06:12.513Z,47.00
2016-12-31T11:07:12.056Z,47.10
2016-12-31T11:08:12.601Z,47.20
2016-12-31T11:09:12.189Z,47.30
2016-12-31T11:10:12.257Z,47.30
2016-12-31T11:11:11.186Z,is
2016-12-31T11:12:12.251Z,47.20
2016-12-31T11:13:13.054Z,47.40
2016-12-31T11:14:12.813Z,47.40
2016-12-31T11:15:12.536Z,47.50
2016-12-31T11:16:12.296Z,47.60
2016-12-31T11:17:11.420Z,is
2016-12-31T11:18:12.533Z,47.60
2016-12-31T11:19:09.977Z,is
2016-12-31T11:20:12.634Z,47.60
2016-12-31T11:21:12.302Z,47.60
2016-12-31T11:25:12.803Z,47.70
2016-12-31T11:26:11.754Z,48.00
2016-12-31T11:27:10.262Z,is
2016-12-31T11:28:11.668Z,47.70
2016-12-31T11:29:13.590Z,48.00
2016-12-31T11:30:12.233Z,47.70
2016-12-31T11:31:13.807Z,47.90
2016-12-31T11:32:12.935Z,47.70
2016-12-31T11:33:14.732Z,47.80
2016-12-31T11:34:13.437Z,48.60
2016-12-31T11:35:13.215Z,47.90
2016-12-31T11:36:12.669Z,48.00
2016-12-31T11:37:13.193Z,48.00
2016-12-31T11:38:12.963Z,48.10
2016-12-31T11:39:13.258Z,48.20
2016-12-31T11:40:12.986Z,48.10
2016-12-31T11:41:12.608Z,48.20
2016-12-31T11:42:12.953Z,48.20
2016-12-31T11:43:12.759Z,48.30
2016-12-31T11:44:13.545Z,48.30
2016-12-31T11:45:11.327Z,is
2016-12-31T11:46:12.273Z,48.30
2016-12-31T11:47:12.824Z,48.20
2016-12-31T11:48:12.478Z,48.20
2016-12-31T11:49:12.682Z,48.20
2016-12-31T11:50:12.197Z,48.20
2016-12-31T11:51:14.057Z,48.60
2016-12-31T11:52:12.988Z,48.10
2016-12-31T11:53:13.656Z,48.20
2016-12-31T11:54:12.396Z,48.20
2016-12-31T11:55:12.566Z,48.20
2016-12-31T11:56:13.213Z,48.70
2016-12-31T11:57:13.320Z,48.20
2016-12-31T11:58:12.227Z,48.10
2016-12-31T11:59:12.787Z,48.10
2016-12-31T12:00:12.501Z,48.20
2016-12-31T12:01:12.145Z,48.10
2016-12-31T12:02:12.103Z,48.10
2016-12-31T12:03:13.694Z,48.30
2016-12-31T12:04:13.335Z,48.30
2016-12-31T12:05:14.165Z,48.20
2016-12-31T12:06:14.319Z,48.20
2016-12-31T12:10:12.048Z,48.30
2016-12-31T12:11:12.091Z,48.20
2016-12-31T12:12:10.960Z,is
2016-12-31T12:13:12.143Z,48.20
2016-12-31T12:14:13.736Z,48.30
2016-12-31T12:15:14.307Z,48.30
2016-12-31T12:16:12.610Z,48.30
2016-12-31T12:17:12.376Z,48.20
2016-12-31T12:18:13.164Z,48.30
2016-12-31T12:19:12.866Z,48.20
2016-12-31T12:20:13.537Z,48.40
2016-12-31T12:21:14.192Z,48.40
2016-12-31T12:22:13.168Z,48.50
2016-12-31T12:23:12.724Z,48.40
2016-12-31T12:24:12.574Z,48.50
2016-12-31T12:25:13.173Z,48.50
2016-12-31T12:26:13.774Z,48.50
2016-12-31T12:27:12.301Z,48.50
2016-12-31T12:28:13.033Z,48.40
2016-12-31T12:29:13.737Z,48.50
2016-12-31T12:30:12.719Z,48.40
2016-12-31T12:31:12.814Z,48.40
2016-12-31T12:32:12.109Z,48.20
2016-12-31T12:33:12.685Z,48.20
2016-12-31T12:34:13.505Z,48.30
2016-12-31T12:35:12.276Z,48.40
2016-12-31T12:36:12.632Z,48.40
2016-12-31T12:37:12.633Z,48.50
2016-12-31T12:38:12.685Z,48.50
2016-12-31T12:42:32.243Z,48.70
2016-12-31T12:43:33.866Z,48.70
2016-12-31T12:44:29.522Z,48.70
2016-12-31T12:45:47.023Z,48.70
2016-12-31T12:46:35.623Z,48.70
2016-12-31T12:47:38.077Z,48.80
2016-12-31T12:48:27.385Z,48.80
2016-12-31T12:49:56.176Z,48.90
2016-12-31T12:50:44.271Z,49.00
2016-12-31T12:51:28.947Z,48.90
2016-12-31T12:52:31.967Z,48.90
2016-12-31T12:53:42.536Z,49.10
2016-12-31T12:54:51.028Z,49.40
2016-12-31T12:55:39.469Z,49.00
2016-12-31T12:56:29.089Z,49.00
2016-12-31T12:57:34.735Z,49.10
2016-12-31T12:58:36.274Z,49.00
2016-12-31T12:59:33.803Z,48.90
2016-12-31T13:00:34.069Z,48.80
2016-12-31T13:01:43.321Z,48.80
2016-12-31T13:02:27.630Z,49.10
2016-12-31T13:03:45.198Z,49.00
2016-12-31T13:04:29.898Z,48.50
2016-12-31T13:05:40.434Z,49.00
2016-12-31T13:06:34.040Z,49.00
2016-12-31T13:07:28.258Z,49.00